createdAt,value
2022-12-18T08:46:45.850Z,102221.19
2022-12-18T08:57:56.356Z,102219.22
2022-12-18T09:01:32.342Z,102234.66
2022-12-18T09:05:05.083Z,102233.56
2022-12-18T09:08:43.562Z,102240.97
2022-12-18T09:12:23.411Z,102233.19
2022-12-18T09:15:56.885Z,102239.59
2022-12-18T09:19:20.960Z,102236.50
2022-12-18T09:22:55.636Z,102238.16
2022-12-18T09:26:40.973Z,102238.66
2022-12-18T09:30:26.555Z,102232.66
2022-12-18T09:34:24.726Z,102231.69
2022-12-18T09:37:52.758Z,102236.41
2022-12-18T09:41:42.542Z,102245.75
2022-12-18T09:45:41.982Z,102244.53
2022-12-18T09:49:28.647Z,102245.47
2022-12-18T09:53:23.808Z,102240.59
2022-12-18T09:57:00.436Z,102225.50
2022-12-18T10:15:45.375Z,102220.47
2022-12-18T10:18:59.415Z,102217.72
2022-12-18T11:35:55.908Z,102201.88
2022-12-18T11:39:03.969Z,102200.00
2022-12-18T11:42:17.592Z,102194.03
2022-12-18T11:45:32.193Z,102201.78
2022-12-18T11:49:16.861Z,102201.28
2022-12-18T11:52:25.267Z,102192.91
2022-12-18T11:55:50.321Z,102187.34
2022-12-18T11:59:17.609Z,102173.06
2022-12-18T12:02:39.456Z,102171.78
2022-12-18T12:06:27.860Z,102179.84
2022-12-18T12:09:52.147Z,102173.66
2022-12-18T14:39:00.718Z,102260.84
2022-12-18T15:39:36.977Z,102334.41
2022-12-18T15:43:25.375Z,102346.94
2022-12-18T15:46:48.175Z,102350.50
2022-12-18T15:50:11.918Z,102353.66
2022-12-18T15:53:35.135Z,102350.53
2022-12-18T15:57:24.211Z,102353.00
2022-12-18T16:00:47.218Z,102351.50
2022-12-18T16:04:30.723Z,102349.28
2022-12-18T16:08:13.862Z,102353.41
2022-12-18T16:12:20.547Z,102356.31
2022-12-18T16:16:07.222Z,102357.41
2022-12-18T16:19:45.980Z,102376.47
2022-12-18T16:23:46.835Z,102372.47
2022-12-18T16:31:14.583Z,102387.84
2022-12-18T16:34:51.992Z,102395.38
2022-12-18T16:38:29.534Z,102396.75
2022-12-18T16:42:18.265Z,102408.38
2022-12-18T16:45:53.200Z,102412.34
2022-12-18T16:49:27.430Z,102420.31
2022-12-18T16:53:02.572Z,102421.69
2022-12-18T16:56:06.475Z,102414.25
2022-12-18T16:59:30.111Z,102404.50
2022-12-18T17:03:20.833Z,102403.13
2022-12-18T17:06:54.680Z,102399.84
2022-12-18T17:10:01.611Z,102397.62
2022-12-18T17:13:27.572Z,102392.00
2022-12-18T17:17:19.301Z,102386.03
2022-12-18T17:20:35.659Z,102383.34
2022-12-18T17:23:39.549Z,102375.50
2022-12-18T17:26:43.835Z,102378.13
2022-12-18T17:29:48.372Z,102387.41
2022-12-18T17:32:51.786Z,102385.09
2022-12-18T17:36:15.927Z,102393.28
2022-12-18T17:39:23.022Z,102406.03
2022-12-18T17:42:26.414Z,102402.41
2022-12-18T17:45:29.601Z,102396.19
2022-12-18T17:48:35.382Z,102398.53
2022-12-18T17:51:41.570Z,102398.25
2022-12-18T17:54:46.240Z,102393.84
2022-12-18T17:57:56.173Z,102402.59
2022-12-18T18:01:05.873Z,102394.34
2022-12-18T18:04:09.759Z,102392.97
2022-12-18T18:07:13.567Z,102392.69
2022-12-18T18:10:25.201Z,102395.81
2022-12-18T18:14:03.134Z,102396.53
2022-12-18T18:17:14.757Z,102402.87
2022-12-18T18:20:40.919Z,102398.41
2022-12-18T18:23:45.157Z,102397.72
2022-12-18T19:16:38.147Z,102430.84
2022-12-18T19:19:41.200Z,102430.06
2022-12-18T19:22:44.789Z,102430.19
2022-12-18T19:26:26.910Z,102436.31
2022-12-18T19:29:27.852Z,102440.97
2022-12-18T19:32:31.504Z,102436.13
2022-12-18T19:35:34.434Z,102438.38
2022-12-18T19:38:38.231Z,102444.88
2022-12-18T19:41:42.225Z,102450.87
2022-12-18T19:44:45.598Z,102462.47
2022-12-18T19:47:48.254Z,102460.81
2022-12-18T19:50:51.153Z,102460.72
2022-12-18T19:53:58.867Z,102466.63
2022-12-18T19:57:02.881Z,102465.22
2022-12-18T20:00:06.798Z,102470.19
2022-12-18T20:03:24.274Z,102464.97
2022-12-18T20:06:34.298Z,102461.09
2022-12-18T20:09:37.080Z,102468.28
2022-12-18T20:12:40.177Z,102483.91
2022-12-18T20:15:45.265Z,102486.16
2022-12-18T20:18:49.264Z,102485.75
2022-12-18T20:21:52.413Z,102482.47
2022-12-18T20:24:55.410Z,102489.91
2022-12-18T20:27:58.234Z,102501.16
2022-12-18T20:31:06.642Z,102503.84
2022-12-18T20:34:09.548Z,102504.81
2022-12-18T20:37:19.454Z,102497.63
2022-12-18T20:40:24.124Z,102506.56
2022-12-18T20:43:27.064Z,102510.97
2022-12-18T20:46:29.744Z,102498.78
2022-12-18T20:49:32.704Z,102503.25
2022-12-18T20:52:35.317Z,102504.56
2022-12-18T20:55:42.417Z,102501.37
2022-12-18T20:58:45.706Z,102504.44
2022-12-18T21:01:49.501Z,102504.91
2022-12-18T21:04:53.337Z,102507.91
2022-12-18T21:07:56.380Z,102512.25
2022-12-18T21:11:47.089Z,102516.38
2022-12-18T21:14:50.122Z,102503.75
2022-12-18T21:17:53.113Z,102504.37
2022-12-18T21:20:56.213Z,102505.56
2022-12-18T21:23:59.032Z,102501.75
2022-12-18T21:27:02.116Z,102513.66
2022-12-18T21:30:05.616Z,102504.59
2022-12-18T21:33:08.762Z,102507.31
2022-12-18T21:36:12.209Z,102510.41
2022-12-18T21:39:16.716Z,102513.09
2022-12-18T21:42:37.897Z,102508.56
2022-12-18T21:45:41.032Z,102490.06
2022-12-18T21:48:44.234Z,102495.22
2022-12-18T21:51:49.531Z,102494.97
2022-12-18T21:54:52.255Z,102502.78
2022-12-18T21:57:55.348Z,102494.37
2022-12-18T22:00:58.123Z,102503.47
2022-12-18T22:04:01.018Z,102498.88
2022-12-18T22:07:05.272Z,102499.81
2022-12-18T22:10:09.115Z,102503.75
2022-12-18T22:13:11.793Z,102496.06
2022-12-18T22:16:14.786Z,102485.88
2022-12-18T22:19:18.234Z,102484.53
2022-12-18T22:22:21.230Z,102487.41
2022-12-18T22:25:23.823Z,102482.69
2022-12-18T22:28:45.301Z,102485.06
2022-12-18T22:31:48.250Z,102489.31
2022-12-18T22:34:51.248Z,102495.47
2022-12-18T22:37:53.901Z,102495.03
2022-12-18T22:40:56.839Z,102506.25
2022-12-18T22:43:59.732Z,102514.50
2022-12-18T22:47:07.033Z,102514.37
2022-12-18T22:50:14.799Z,102507.75
2022-12-18T22:53:19.951Z,102512.69
2022-12-18T22:56:22.826Z,102512.94
2022-12-18T22:59:25.872Z,102504.31
2022-12-18T23:02:28.655Z,102509.00
2022-12-18T23:05:32.108Z,102504.28
2022-12-18T23:08:35.049Z,102502.53
2022-12-18T23:11:37.975Z,102510.06
2022-12-18T23:14:40.524Z,102517.44
2022-12-18T23:17:43.464Z,102516.50
2022-12-18T23:20:46.514Z,102518.84
2022-12-18T23:23:51.001Z,102525.34
2022-12-18T23:26:53.888Z,102518.81
2022-12-18T23:29:56.883Z,102521.19
2022-12-18T23:33:01.404Z,102524.25
2022-12-18T23:36:05.304Z,102522.47
2022-12-18T23:39:07.929Z,102521.47
2022-12-18T23:42:10.877Z,102517.38
2022-12-18T23:45:17.853Z,102515.81
2022-12-18T23:48:21.325Z,102514.00
2022-12-18T23:51:25.690Z,102517.59
2022-12-18T23:54:33.568Z,102507.03
2022-12-18T23:57:36.425Z,102503.38
